createdAt,value
2018-01-31T01:52:21.952Z,15.10
2018-01-31T01:54:23.515Z,15.00
2018-01-31T01:56:52.311Z,16.40
2018-01-31T01:59:21.111Z,18.53
2018-01-31T02:01:49.920Z,17.40
2018-01-31T02:04:18.741Z,16.20
2018-01-31T02:06:47.545Z,16.00
2018-01-31T02:09:17.155Z,14.40
2018-01-31T02:11:45.968Z,14.83
2018-01-31T02:14:14.789Z,16.70
2018-01-31T02:16:43.588Z,15.37
2018-01-31T02:19:12.409Z,16.10
2018-01-31T02:21:41.218Z,17.50
2018-01-31T02:24:10.032Z,15.77
2018-01-31T02:26:38.844Z,16.17
2018-01-31T02:29:07.640Z,16.47
2018-01-31T02:31:36.444Z,17.10
2018-01-31T02:34:05.304Z,16.63
2018-01-31T02:36:34.251Z,17.17
2018-01-31T02:39:08.973Z,15.53
2018-01-31T02:41:37.805Z,16.40
2018-01-31T02:44:06.649Z,16.27
2018-01-31T02:46:35.491Z,16.03
2018-01-31T02:49:04.425Z,18.20
2018-01-31T02:51:33.261Z,18.03
2018-01-31T02:54:02.107Z,16.97
2018-01-31T02:56:30.931Z,16.90
2018-01-31T02:58:59.757Z,16.80
2018-01-31T03:01:28.592Z,18.07
2018-01-31T03:03:58.216Z,18.30
2018-01-31T03:06:27.050Z,18.80
2018-01-31T03:08:55.982Z,20.30
2018-01-31T03:11:24.812Z,19.30
2018-01-31T03:13:53.644Z,19.77
2018-01-31T03:16:22.489Z,19.50
2018-01-31T03:18:51.330Z,20.60
2018-01-31T03:21:20.186Z,20.97
2018-01-31T03:23:49.034Z,20.70
2018-01-31T03:26:17.865Z,20.30
2018-01-31T03:28:46.701Z,20.47
2018-01-31T03:31:15.542Z,20.50
2018-01-31T03:33:44.481Z,21.07
2018-01-31T03:36:13.301Z,20.87
2018-01-31T03:38:42.149Z,22.33
2018-01-31T03:41:11.009Z,22.80
2018-01-31T03:43:39.837Z,24.00
2018-01-31T03:46:08.677Z,24.50
2018-01-31T03:48:38.448Z,21.87
2018-01-31T03:51:07.290Z,20.90
2018-01-31T03:53:36.217Z,22.63
2018-01-31T03:56:05.109Z,22.60
2018-01-31T03:58:34.000Z,21.70
2018-01-31T04:01:02.885Z,22.70
2018-01-31T04:03:31.785Z,22.70
2018-01-31T04:06:00.611Z,22.60
2018-01-31T04:08:29.462Z,22.07
2018-01-31T04:10:58.286Z,20.47
2018-01-31T04:13:27.112Z,19.83
2018-01-31T04:15:55.957Z,19.20
2018-01-31T04:18:24.782Z,18.20
2018-01-31T04:20:53.610Z,18.33
2018-01-31T04:23:22.458Z,18.53
2018-01-31T04:25:51.287Z,17.73
2018-01-31T04:28:20.122Z,18.13
2018-01-31T04:30:48.967Z,17.90
2018-01-31T04:33:17.797Z,19.27
2018-01-31T04:35:46.627Z,18.73
2018-01-31T04:38:15.473Z,18.97
2018-01-31T04:40:44.313Z,22.43
2018-01-31T04:43:13.145Z,25.07
2018-01-31T04:45:41.984Z,34.50
2018-01-31T04:48:10.825Z,24.67
2018-01-31T04:50:39.660Z,24.27
2018-01-31T04:53:08.498Z,25.73
2018-01-31T04:55:37.325Z,22.50
2018-01-31T04:58:06.252Z,21.37
2018-01-31T05:00:35.096Z,21.97
2018-01-31T05:03:03.944Z,22.90
2018-01-31T05:05:32.776Z,24.80
2018-01-31T05:08:01.670Z,23.80
2018-01-31T05:10:31.548Z,23.07
2018-01-31T05:13:00.376Z,25.03
2018-01-31T05:15:29.220Z,25.73
2018-01-31T05:17:58.050Z,27.17
2018-01-31T05:20:26.898Z,25.40
2018-01-31T05:22:55.774Z,24.93
2018-01-31T05:25:24.613Z,24.67
2018-01-31T05:27:53.453Z,25.53
2018-01-31T05:30:22.299Z,26.47
2018-01-31T05:32:51.133Z,26.77
2018-01-31T05:35:20.031Z,26.93
2018-01-31T05:37:48.877Z,26.57
2018-01-31T05:40:17.721Z,26.77
2018-01-31T05:42:46.557Z,28.37
2018-01-31T05:45:15.487Z,26.23
2018-01-31T05:47:44.389Z,29.10
2018-01-31T05:50:13.221Z,24.93
2018-01-31T05:52:42.069Z,24.80
2018-01-31T05:55:10.905Z,22.93
2018-01-31T05:57:39.846Z,24.87
2018-01-31T06:00:08.739Z,26.20
2018-01-31T06:02:37.620Z,25.77
2018-01-31T06:05:06.528Z,26.57
2018-01-31T06:07:35.414Z,24.90
2018-01-31T06:10:04.252Z,25.37
2018-01-31T06:12:33.084Z,26.50
2018-01-31T06:15:01.916Z,25.93
2018-01-31T06:17:30.752Z,27.23
2018-01-31T06:19:59.582Z,25.50
2018-01-31T06:22:28.429Z,27.87
2018-01-31T06:24:57.258Z,27.20
2018-01-31T06:27:26.122Z,26.13
2018-01-31T06:29:54.962Z,25.27
2018-01-31T06:32:23.801Z,25.80
2018-01-31T06:34:52.641Z,26.53
2018-01-31T06:37:22.061Z,27.77
2018-01-31T06:39:50.901Z,25.60
2018-01-31T06:42:20.481Z,26.80
2018-01-31T06:44:50.133Z,28.70
2018-01-31T06:47:19.019Z,27.37
2018-01-31T06:49:47.854Z,28.67
2018-01-31T06:52:16.697Z,31.40
2018-01-31T06:54:45.539Z,29.30
2018-01-31T06:57:14.367Z,28.47
2018-01-31T06:59:43.245Z,27.83
2018-01-31T07:02:12.141Z,29.30
2018-01-31T07:04:41.824Z,28.47
2018-01-31T07:07:10.766Z,28.47
2018-01-31T07:09:39.591Z,27.87
2018-01-31T07:12:08.524Z,26.30
2018-01-31T07:14:37.375Z,24.43
2018-01-31T07:17:06.308Z,27.27
2018-01-31T07:19:35.134Z,28.17
2018-01-31T07:22:04.102Z,28.17
2018-01-31T07:24:32.934Z,26.87
2018-01-31T07:27:01.758Z,26.50
2018-01-31T07:29:30.668Z,27.30
2018-01-31T07:31:59.497Z,26.47
2018-01-31T07:34:28.334Z,25.93
2018-01-31T07:36:57.166Z,24.80
2018-01-31T07:39:25.997Z,25.10
2018-01-31T07:41:54.829Z,27.87
2018-01-31T07:44:23.719Z,25.53
2018-01-31T07:46:52.545Z,25.93
2018-01-31T07:49:21.481Z,25.23
2018-01-31T07:51:50.369Z,25.53
2018-01-31T07:54:19.205Z,23.50
2018-01-31T07:56:48.057Z,25.07
2018-01-31T07:59:16.899Z,23.10
2018-01-31T08:01:45.767Z,25.20
2018-01-31T08:04:14.871Z,22.90
2018-01-31T08:06:43.706Z,23.60
2018-01-31T08:09:12.547Z,23.90
2018-01-31T08:11:41.408Z,23.67
2018-01-31T08:14:10.251Z,25.90
2018-01-31T08:16:39.102Z,24.83
2018-01-31T08:19:07.932Z,26.37
2018-01-31T08:21:36.864Z,26.43
2018-01-31T08:24:05.702Z,26.50
2018-01-31T08:26:34.644Z,26.17
2018-01-31T08:29:04.108Z,26.47
2018-01-31T08:31:32.946Z,24.33
2018-01-31T08:34:01.952Z,24.87
2018-01-31T08:36:30.789Z,25.70
2018-01-31T08:38:59.722Z,24.20
2018-01-31T08:41:28.546Z,26.30
2018-01-31T08:43:57.512Z,24.57
2018-01-31T08:46:26.386Z,24.70
2018-01-31T08:48:55.217Z,22.90
2018-01-31T08:51:24.061Z,24.00
2018-01-31T08:53:52.895Z,24.63
2018-01-31T08:56:21.729Z,23.80
2018-01-31T08:58:50.601Z,24.70
2018-01-31T09:01:19.429Z,26.03
2018-01-31T09:03:48.265Z,25.53
2018-01-31T09:06:17.107Z,27.20
2018-01-31T09:08:45.994Z,22.90
2018-01-31T09:11:14.885Z,24.53
2018-01-31T09:13:43.728Z,28.07
2018-01-31T09:16:12.557Z,25.77
2018-01-31T09:18:41.465Z,24.90
2018-01-31T09:21:10.313Z,24.97
2018-01-31T09:23:39.145Z,24.43
2018-01-31T09:26:08.038Z,22.47
2018-01-31T09:28:36.932Z,22.63
2018-01-31T09:31:05.825Z,21.43
2018-01-31T09:33:34.652Z,21.43
2018-01-31T09:36:03.488Z,22.77
2018-01-31T09:38:32.334Z,23.53
2018-01-31T09:41:01.158Z,23.27
2018-01-31T09:43:30.032Z,23.13
2018-01-31T09:45:58.864Z,23.10
2018-01-31T09:48:27.699Z,20.43
2018-01-31T09:50:56.541Z,23.30
2018-01-31T09:53:25.450Z,21.70
2018-01-31T09:55:54.237Z,21.93
2018-01-31T09:58:23.164Z,20.97
2018-01-31T10:00:51.981Z,18.93
2018-01-31T10:03:20.885Z,21.40
2018-01-31T10:05:49.729Z,18.70
2018-01-31T10:08:18.557Z,16.70
2018-01-31T10:10:47.387Z,18.20
2018-01-31T10:13:16.250Z,18.53
2018-01-31T10:15:45.081Z,18.60
2018-01-31T10:18:13.917Z,17.67
2018-01-31T10:20:42.757Z,17.27
2018-01-31T10:23:11.590Z,17.63
2018-01-31T10:25:40.422Z,16.73
2018-01-31T10:28:09.262Z,16.97
2018-01-31T10:30:38.094Z,13.90
2018-01-31T10:33:06.970Z,14.30
2018-01-31T10:35:35.816Z,14.40
2018-01-31T10:38:04.654Z,13.00
2018-01-31T10:40:33.486Z,12.67
2018-01-31T10:43:02.328Z,12.97
2018-01-31T10:45:31.162Z,13.40
2018-01-31T10:48:00.100Z,12.67
2018-01-31T10:50:28.997Z,12.00
2018-01-31T10:52:57.830Z,13.10
2018-01-31T10:57:55.517Z,11.20
2018-01-31T11:00:27.189Z,10.93
2018-01-31T11:02:56.037Z,10.60
2018-01-31T11:05:24.853Z,9.00
2018-01-31T11:07:53.678Z,8.50
2018-01-31T11:10:22.513Z,8.50
2018-01-31T11:12:51.341Z,8.80
2018-01-31T11:15:20.167Z,6.30
2018-01-31T11:17:49.139Z,5.20
2018-01-31T11:20:17.965Z,5.57
2018-01-31T11:22:46.790Z,4.83
2018-01-31T11:25:15.632Z,5.20
2018-01-31T11:27:44.454Z,6.00
2018-01-31T11:30:13.278Z,6.30
2018-01-31T11:32:42.106Z,5.70
2018-01-31T11:35:10.938Z,6.17
2018-01-31T11:37:39.868Z,5.63
2018-01-31T11:40:08.702Z,5.63
2018-01-31T11:42:37.531Z,4.70
2018-01-31T11:45:06.349Z,5.37
2018-01-31T11:47:35.182Z,4.73
2018-01-31T11:50:04.011Z,5.10
2018-01-31T11:52:32.846Z,5.67
2018-01-31T11:55:01.694Z,5.50
2018-01-31T11:57:30.517Z,5.27
2018-01-31T11:59:59.337Z,4.97
2018-01-31T12:02:28.177Z,4.33
2018-01-31T12:04:57.002Z,4.80
2018-01-31T12:07:25.853Z,4.60
2018-01-31T12:09:54.713Z,4.07
2018-01-31T12:12:29.537Z,4.60
2018-01-31T12:15:04.307Z,4.07
2018-01-31T12:17:33.139Z,4.37
2018-01-31T12:20:08.023Z,4.90
2018-01-31T12:22:42.852Z,4.90
2018-01-31T12:25:31.381Z,5.40
2018-01-31T12:28:06.128Z,5.23
2018-01-31T12:30:51.646Z,5.13
2018-01-31T12:33:26.326Z,5.43
2018-01-31T12:36:01.050Z,6.37
2018-01-31T12:38:35.860Z,5.70
2018-01-31T12:41:04.457Z,5.50
2018-01-31T12:43:33.046Z,6.90
2018-01-31T12:46:07.894Z,10.97
2018-01-31T12:48:42.678Z,5.10
2018-01-31T12:51:17.290Z,4.70
2018-01-31T12:53:52.030Z,5.47
2018-01-31T12:56:37.570Z,5.70
2018-01-31T12:59:12.260Z,6.47
2018-01-31T13:01:47.085Z,4.73
2018-01-31T13:04:21.859Z,4.50
2018-01-31T13:06:56.537Z,3.87
2018-01-31T13:09:31.293Z,5.20
2018-01-31T13:12:05.951Z,4.20
2018-01-31T13:14:40.601Z,3.90
2018-01-31T13:17:15.417Z,3.57
2018-01-31T13:19:50.217Z,4.70
2018-01-31T13:22:24.943Z,3.20
2018-01-31T13:24:59.608Z,3.43
2018-01-31T13:27:38.296Z,3.37
2018-01-31T13:30:13.117Z,3.53
2018-01-31T13:32:53.528Z,4.43
2018-01-31T13:35:41.218Z,4.93
2018-01-31T13:38:25.660Z,4.90
2018-01-31T13:41:00.332Z,4.50
2018-01-31T13:43:35.042Z,5.83
2018-01-31T13:46:09.614Z,5.10
2018-01-31T13:48:44.334Z,4.83
2018-01-31T13:51:32.922Z,5.00
2018-01-31T13:54:07.567Z,4.90
2018-01-31T13:56:42.209Z,4.30
2018-01-31T13:59:16.874Z,4.27
2018-01-31T14:01:51.426Z,3.90
2018-01-31T14:04:26.261Z,4.83
2018-01-31T14:07:00.954Z,4.83
2018-01-31T14:09:35.709Z,4.80
2018-01-31T14:12:10.366Z,5.20
2018-01-31T14:14:45.032Z,5.30
2018-01-31T14:17:19.733Z,5.13
2018-01-31T14:19:54.521Z,7.60
2018-01-31T14:22:29.181Z,5.40
2018-01-31T14:25:03.987Z,7.83
2018-01-31T14:27:38.713Z,5.33
2018-01-31T14:30:13.333Z,4.60
2018-01-31T14:32:47.961Z,6.97
2018-01-31T14:35:22.509Z,4.63
2018-01-31T14:37:51.182Z,4.07
2018-01-31T14:40:19.774Z,4.17
2018-01-31T14:42:48.450Z,4.27
2018-01-31T14:45:17.142Z,4.13
2018-01-31T14:47:45.726Z,3.13
2018-01-31T14:50:14.404Z,3.50
2018-01-31T14:52:42.980Z,4.53
2018-01-31T14:55:11.654Z,3.83
2018-01-31T14:57:40.256Z,3.73
2018-01-31T15:00:08.840Z,4.17
2018-01-31T15:02:37.422Z,4.07
2018-01-31T15:05:06.014Z,4.10
2018-01-31T15:07:34.693Z,4.20
2018-01-31T15:10:03.334Z,3.70
2018-01-31T15:12:31.893Z,4.47
2018-01-31T15:15:00.488Z,6.30
2018-01-31T15:17:29.070Z,4.70
2018-01-31T15:19:57.721Z,5.57
2018-01-31T15:22:26.305Z,4.63
2018-01-31T15:24:55.313Z,4.27
2018-01-31T15:27:24.289Z,5.50
2018-01-31T15:29:52.972Z,7.80
2018-01-31T15:32:22.301Z,6.10
2018-01-31T15:34:50.909Z,6.17
2018-01-31T15:37:19.542Z,8.00
2018-01-31T15:39:48.121Z,5.70
2018-01-31T15:42:16.722Z,6.40
2018-01-31T15:44:45.310Z,6.10
2018-01-31T15:47:13.906Z,5.67
2018-01-31T15:49:42.510Z,4.47
2018-01-31T15:52:11.150Z,4.43
2018-01-31T15:54:39.724Z,4.77
2018-01-31T15:57:08.326Z,5.43
2018-01-31T15:59:37.006Z,4.93
2018-01-31T16:02:05.628Z,4.90
2018-01-31T16:04:34.210Z,5.77
2018-01-31T16:07:02.802Z,4.63
2018-01-31T16:09:31.441Z,10.10
2018-01-31T16:12:00.064Z,5.03
2018-01-31T16:14:28.659Z,5.53
2018-01-31T16:16:57.493Z,4.90
2018-01-31T16:19:32.434Z,7.20
2018-01-31T16:22:01.325Z,8.63
2018-01-31T16:24:30.193Z,11.57
2018-01-31T16:26:59.037Z,8.37
2018-01-31T16:29:40.673Z,7.40
2018-01-31T16:32:15.379Z,9.83
2018-01-31T16:34:44.209Z,9.30
2018-01-31T16:37:13.037Z,8.40
2018-01-31T16:39:41.875Z,7.20
2018-01-31T16:42:10.703Z,7.57
2018-01-31T16:44:39.534Z,8.50
2018-01-31T16:47:08.471Z,7.43
2018-01-31T16:49:37.292Z,7.00
2018-01-31T16:52:06.146Z,7.07
2018-01-31T16:54:35.002Z,8.60
2018-01-31T16:57:03.934Z,8.27
2018-01-31T16:59:32.758Z,7.40
2018-01-31T17:02:01.707Z,7.67
2018-01-31T17:04:30.538Z,9.53
2018-01-31T17:06:59.393Z,11.20
2018-01-31T17:09:28.245Z,17.90
2018-01-31T17:11:57.169Z,11.80
2018-01-31T17:14:26.187Z,14.20
2018-01-31T17:16:55.030Z,10.60
2018-01-31T17:19:23.861Z,11.10
2018-01-31T17:21:52.734Z,11.13
2018-01-31T17:24:21.637Z,9.97
2018-01-31T17:26:50.467Z,10.80
2018-01-31T17:29:19.305Z,11.23
2018-01-31T17:31:48.193Z,12.53
2018-01-31T17:34:17.025Z,12.47
2018-01-31T17:36:45.873Z,13.00
2018-01-31T17:39:14.743Z,13.40
2018-01-31T17:41:43.583Z,13.87
2018-01-31T17:44:12.421Z,17.90
2018-01-31T17:46:41.341Z,13.77
2018-01-31T17:49:10.172Z,17.00
2018-01-31T17:51:39.020Z,16.40
2018-01-31T17:54:07.862Z,12.50
2018-01-31T17:56:36.696Z,13.50
2018-01-31T17:59:05.518Z,12.37
2018-01-31T18:01:34.396Z,10.60
2018-01-31T18:04:03.230Z,12.07
2018-01-31T18:06:32.063Z,18.77
2018-01-31T18:09:01.641Z,13.20
2018-01-31T18:11:30.558Z,13.53
2018-01-31T18:13:59.468Z,12.27
2018-01-31T18:16:28.347Z,12.50
2018-01-31T18:18:57.212Z,11.13
2018-01-31T18:21:26.271Z,10.80
2018-01-31T18:23:55.139Z,13.20
2018-01-31T18:26:23.981Z,18.87
2018-01-31T18:28:52.809Z,14.90
2018-01-31T18:31:21.685Z,16.20
2018-01-31T18:33:50.577Z,20.00
2018-01-31T18:36:19.417Z,13.70
2018-01-31T18:38:48.367Z,11.07
2018-01-31T18:41:17.247Z,12.50
2018-01-31T18:43:46.078Z,12.80
2018-01-31T18:46:14.920Z,12.03
2018-01-31T18:48:43.842Z,15.00
2018-01-31T18:51:12.678Z,13.83
2018-01-31T18:53:41.554Z,12.90
2018-01-31T18:56:10.382Z,11.33
2018-01-31T18:58:39.210Z,11.80
2018-01-31T19:01:08.071Z,11.17
2018-01-31T19:03:36.924Z,12.53
2018-01-31T19:06:05.768Z,10.63
2018-01-31T19:08:34.622Z,10.70
2018-01-31T19:11:03.552Z,15.17
2018-01-31T19:13:32.440Z,14.33
2018-01-31T19:16:01.339Z,11.73
2018-01-31T19:18:30.194Z,11.50
2018-01-31T19:20:59.129Z,9.73
2018-01-31T19:23:28.050Z,11.10
2018-01-31T19:25:56.935Z,10.20
2018-01-31T19:28:25.785Z,11.77
2018-01-31T19:30:54.691Z,12.73
2018-01-31T19:33:23.575Z,12.10
2018-01-31T19:35:52.534Z,19.53
2018-01-31T19:38:21.484Z,16.70
2018-01-31T19:40:50.581Z,15.33
2018-01-31T19:43:19.550Z,16.20
2018-01-31T19:45:48.515Z,17.80
2018-01-31T19:48:17.708Z,20.37
2018-01-31T19:50:46.566Z,19.37
2018-01-31T19:53:15.475Z,18.20
2018-01-31T19:55:44.400Z,19.03
2018-01-31T19:58:13.282Z,19.03
2018-01-31T20:00:42.205Z,17.63
2018-01-31T20:03:11.048Z,19.10
2018-01-31T20:05:39.894Z,19.17
2018-01-31T20:08:08.796Z,19.40
2018-01-31T20:10:38.780Z,31.03
2018-01-31T20:13:07.778Z,22.60
2018-01-31T20:15:36.680Z,26.13
2018-01-31T20:18:05.614Z,20.53
2018-01-31T20:20:34.540Z,20.67
2018-01-31T20:23:03.540Z,30.07
2018-01-31T20:25:32.655Z,20.13
2018-01-31T20:28:01.511Z,24.07
2018-01-31T20:30:30.359Z,22.40
2018-01-31T20:32:59.209Z,20.77
2018-01-31T20:35:28.047Z,24.30
2018-01-31T20:37:56.912Z,25.30
2018-01-31T20:40:25.769Z,22.17
2018-01-31T20:42:54.635Z,21.80
2018-01-31T20:45:23.481Z,21.10
2018-01-31T20:47:52.327Z,18.40
2018-01-31T20:50:21.164Z,17.57
2018-01-31T20:52:50.023Z,19.53
2018-01-31T20:55:18.922Z,22.50
2018-01-31T20:57:47.802Z,20.73
2018-01-31T21:00:17.178Z,20.20
2018-01-31T21:02:46.034Z,20.00
2018-01-31T21:05:14.866Z,22.70
2018-01-31T21:07:43.770Z,21.70
2018-01-31T21:10:12.598Z,21.30
2018-01-31T21:12:41.426Z,20.57
2018-01-31T21:15:10.344Z,20.73
2018-01-31T21:17:39.186Z,22.20
2018-01-31T21:20:08.122Z,20.23
2018-01-31T21:22:37.017Z,20.33
2018-01-31T21:25:05.856Z,18.77
2018-01-31T21:27:34.689Z,19.10
2018-01-31T21:30:03.702Z,16.20
2018-01-31T21:32:32.537Z,18.67
2018-01-31T21:35:01.469Z,18.10
2018-01-31T21:37:30.465Z,19.77
2018-01-31T21:39:59.353Z,18.20
2018-01-31T21:42:28.187Z,17.30
2018-01-31T21:44:57.075Z,17.10
2018-01-31T21:47:25.917Z,15.77
2018-01-31T21:49:54.822Z,15.80
2018-01-31T21:52:23.667Z,15.37
2018-01-31T21:54:52.666Z,16.53
2018-01-31T21:57:21.498Z,15.10
2018-01-31T21:59:50.382Z,14.27
2018-01-31T22:02:19.218Z,9.50
2018-01-31T22:04:48.050Z,8.87
2018-01-31T22:07:16.886Z,6.87
2018-01-31T22:09:45.976Z,6.80
2018-01-31T22:12:14.821Z,8.00
2018-01-31T22:14:43.657Z,5.80
2018-01-31T22:17:12.513Z,5.60
2018-01-31T22:19:41.401Z,6.20
2018-01-31T22:22:10.243Z,5.43
2018-01-31T22:24:39.073Z,5.67
2018-01-31T22:27:07.893Z,6.20
2018-01-31T22:29:36.739Z,5.40
2018-01-31T22:32:05.877Z,4.63
2018-01-31T22:34:34.769Z,5.67
2018-01-31T22:37:03.697Z,5.60
2018-01-31T22:39:32.775Z,5.20
2018-01-31T22:42:01.909Z,5.37
2018-01-31T22:44:30.995Z,5.87
2018-01-31T22:46:59.890Z,5.17
2018-01-31T22:49:28.995Z,5.60
2018-01-31T22:51:58.919Z,5.77
2018-01-31T22:54:28.047Z,5.30
2018-01-31T22:56:57.048Z,5.33
2018-01-31T22:59:26.238Z,5.30
2018-01-31T23:01:55.377Z,4.80
2018-01-31T23:04:24.310Z,4.53
2018-01-31T23:06:53.154Z,4.90
2018-01-31T23:09:22.116Z,4.80
2018-01-31T23:11:50.983Z,5.23
2018-01-31T23:14:25.563Z,5.00
2018-01-31T23:16:54.386Z,4.40
2018-01-31T23:19:23.211Z,4.77
2018-01-31T23:21:52.046Z,5.13
2018-01-31T23:24:20.884Z,4.10
2018-01-31T23:26:49.718Z,5.30
2018-01-31T23:29:18.562Z,4.67
2018-01-31T23:31:47.390Z,4.67
2018-01-31T23:34:16.329Z,4.30
2018-01-31T23:36:45.209Z,4.30
2018-01-31T23:39:14.101Z,4.13
2018-01-31T23:41:42.929Z,4.90
2018-01-31T23:44:11.777Z,4.47
2018-01-31T23:46:40.597Z,4.50
2018-01-31T23:49:09.422Z,4.73
2018-01-31T23:51:38.259Z,4.60
2018-01-31T23:54:07.076Z,4.10
2018-01-31T23:56:36.263Z,4.30
2018-01-31T23:59:05.093Z,3.83
